sensor_id;sensor_type;location;lat;lon;timestamp;temperature;humidity
13409;DHT22;6775;49.574;11.170;2022-12-10T00:01:13;-0.70;99.90
13409;DHT22;6775;49.574;11.170;2022-12-10T00:03:42;-0.50;99.90
13409;DHT22;6775;49.574;11.170;2022-12-10T00:06:11;-0.30;99.90
13409;DHT22;6775;49.574;11.170;2022-12-10T00:08:41;-0.20;99.90
13409;DHT22;6775;49.574;11.170;2022-12-10T00:11:10;-0.10;99.90
13409;DHT22;6775;49.574;11.170;2022-12-10T00:13:39;-0.10;99.90
13409;DHT22;6775;49.574;11.170;2022-12-10T00:16:09;-0.20;99.90
13409;DHT22;6775;49.574;11.170;2022-12-10T00:18:37;-0.10;99.90
13409;DHT22;6775;49.574;11.170;2022-12-10T00:21:07;-0.10;99.90
13409;DHT22;6775;49.574;11.170;2022-12-10T00:23:35;0.00;99.90
13409;DHT22;6775;49.574;11.170;2022-12-10T00:26:06;0.00;99.90
13409;DHT22;6775;49.574;11.170;2022-12-10T00:28:34;0.00;99.90
13409;DHT22;6775;49.574;11.170;2022-12-10T00:31:03;-0.10;99.90
13409;DHT22;6775;49.574;11.170;2022-12-10T00:33:32;-0.10;99.90
13409;DHT22;6775;49.574;11.170;2022-12-10T00:36:03;-0.20;99.90
13409;DHT22;6775;49.574;11.170;2022-12-10T00:38:32;-0.20;99.90
13409;DHT22;6775;49.574;11.170;2022-12-10T00:41:00;-0.30;99.90
13409;DHT22;6775;49.574;11.170;2022-12-10T00:43:29;-0.50;99.90
13409;DHT22;6775;49.574;11.170;2022-12-10T00:45:57;-0.50;99.90
13409;DHT22;6775;49.574;11.170;2022-12-10T00:48:25;-0.50;99.90
13409;DHT22;6775;49.574;11.170;2022-12-10T00:50:57;-0.50;99.90
13409;DHT22;6775;49.574;11.170;2022-12-10T00:53:26;-0.50;99.90
13409;DHT22;6775;49.574;11.170;2022-12-10T00:55:55;-0.50;99.90
13409;DHT22;6775;49.574;11.170;2022-12-10T00:58:26;-0.40;99.90
13409;DHT22;6775;49.574;11.170;2022-12-10T01:01:06;-0.40;99.90
13409;DHT22;6775;49.574;11.170;2022-12-10T01:03:34;-0.50;99.90
13409;DHT22;6775;49.574;11.170;2022-12-10T01:06:10;-0.60;99.90
13409;DHT22;6775;49.574;11.170;2022-12-10T01:08:39;-0.60;99.90
13409;DHT22;6775;49.574;11.170;2022-12-10T01:11:07;-0.80;99.90
13409;DHT22;6775;49.574;11.170;2022-12-10T01:13:36;-0.80;99.90
13409;DHT22;6775;49.574;11.170;2022-12-10T01:16:08;-0.10;99.90
13409;DHT22;6775;49.574;11.170;2022-12-10T01:18:36;-1.00;99.90
13409;DHT22;6775;49.574;11.170;2022-12-10T01:21:06;-1.10;99.90
13409;DHT22;6775;49.574;11.170;2022-12-10T01:23:35;-1.10;99.90
13409;DHT22;6775;49.574;11.170;2022-12-10T01:26:04;-1.10;99.90
13409;DHT22;6775;49.574;11.170;2022-12-10T01:28:34;-1.00;99.90
13409;DHT22;6775;49.574;11.170;2022-12-10T01:31:05;-1.00;99.90
13409;DHT22;6775;49.574;11.170;2022-12-10T01:33:34;-0.90;99.90
13409;DHT22;6775;49.574;11.170;2022-12-10T01:36:03;-0.90;99.90
13409;DHT22;6775;49.574;11.170;2022-12-10T01:38:31;-0.90;99.90
13409;DHT22;6775;49.574;11.170;2022-12-10T01:41:00;-0.90;99.90
13409;DHT22;6775;49.574;11.170;2022-12-10T01:43:47;-0.90;99.90
13409;DHT22;6775;49.574;11.170;2022-12-10T01:46:17;-0.90;99.90
13409;DHT22;6775;49.574;11.170;2022-12-10T01:48:46;-1.00;99.90
13409;DHT22;6775;49.574;11.170;2022-12-10T01:51:15;-1.10;99.90
13409;DHT22;6775;49.574;11.170;2022-12-10T01:53:44;-1.10;99.90
13409;DHT22;6775;49.574;11.170;2022-12-10T01:56:13;-1.20;99.90
13409;DHT22;6775;49.574;11.170;2022-12-10T01:58:43;-1.10;99.90
13409;DHT22;6775;49.574;11.170;2022-12-10T02:04:08;-1.00;99.90
13409;DHT22;6775;49.574;11.170;2022-12-10T02:06:45;-0.90;99.90
13409;DHT22;6775;49.574;11.170;2022-12-10T02:09:22;-1.00;99.90
13409;DHT22;6775;49.574;11.170;2022-12-10T02:12:02;-1.00;99.90
13409;DHT22;6775;49.574;11.170;2022-12-10T02:14:41;-0.90;99.90
13409;DHT22;6775;49.574;11.170;2022-12-10T02:17:16;-0.90;99.90
13409;DHT22;6775;49.574;11.170;2022-12-10T02:22:38;-0.90;99.90
13409;DHT22;6775;49.574;11.170;2022-12-10T02:25:08;-0.90;99.90
13409;DHT22;6775;49.574;11.170;2022-12-10T02:27:42;-1.00;99.90
13409;DHT22;6775;49.574;11.170;2022-12-10T02:30:13;-1.10;99.90
13409;DHT22;6775;49.574;11.170;2022-12-10T02:32:44;-1.10;99.90
13409;DHT22;6775;49.574;11.170;2022-12-10T02:35:16;-1.10;99.90
13409;DHT22;6775;49.574;11.170;2022-12-10T02:37:47;-1.10;99.90
13409;DHT22;6775;49.574;11.170;2022-12-10T02:40:19;-1.10;99.90
13409;DHT22;6775;49.574;11.170;2022-12-10T02:42:51;-0.90;99.90
13409;DHT22;6775;49.574;11.170;2022-12-10T02:45:22;-0.80;99.90
13409;DHT22;6775;49.574;11.170;2022-12-10T02:47:53;-0.70;99.90
13409;DHT22;6775;49.574;11.170;2022-12-10T02:50:22;-0.60;99.90
13409;DHT22;6775;49.574;11.170;2022-12-10T02:52:50;-0.50;99.90
13409;DHT22;6775;49.574;11.170;2022-12-10T02:55:18;-0.50;99.90
13409;DHT22;6775;49.574;11.170;2022-12-10T02:58:00;-0.50;99.90
13409;DHT22;6775;49.574;11.170;2022-12-10T03:00:32;-0.60;99.90
13409;DHT22;6775;49.574;11.170;2022-12-10T03:03:17;-0.60;99.90
13409;DHT22;6775;49.574;11.170;2022-12-10T03:05:57;-0.50;99.90
13409;DHT22;6775;49.574;11.170;2022-12-10T03:08:30;-0.50;99.90
13409;DHT22;6775;49.574;11.170;2022-12-10T03:11:05;-0.50;99.90
13409;DHT22;6775;49.574;11.170;2022-12-10T03:13:38;-0.50;99.90
13409;DHT22;6775;49.574;11.170;2022-12-10T03:16:09;-0.50;99.90
13409;DHT22;6775;49.574;11.170;2022-12-10T03:18:38;-0.40;99.90
13409;DHT22;6775;49.574;11.170;2022-12-10T03:21:07;-0.40;99.90
13409;DHT22;6775;49.574;11.170;2022-12-10T03:23:38;-0.40;99.90
13409;DHT22;6775;49.574;11.170;2022-12-10T03:26:08;-0.40;99.90
13409;DHT22;6775;49.574;11.170;2022-12-10T03:28:41;-0.40;99.90
13409;DHT22;6775;49.574;11.170;2022-12-10T03:31:12;-0.50;99.90
13409;DHT22;6775;49.574;11.170;2022-12-10T03:33:41;-0.50;99.90
13409;DHT22;6775;49.574;11.170;2022-12-10T03:36:10;-0.50;99.90
13409;DHT22;6775;49.574;11.170;2022-12-10T03:38:38;-0.50;99.90
13409;DHT22;6775;49.574;11.170;2022-12-10T03:41:07;-0.50;99.90
13409;DHT22;6775;49.574;11.170;2022-12-10T03:43:35;-0.50;99.90
13409;DHT22;6775;49.574;11.170;2022-12-10T03:46:03;-0.50;99.90
13409;DHT22;6775;49.574;11.170;2022-12-10T03:48:32;-0.50;99.90
13409;DHT22;6775;49.574;11.170;2022-12-10T03:51:00;-0.50;99.90
13409;DHT22;6775;49.574;11.170;2022-12-10T03:53:28;-0.50;99.90
13409;DHT22;6775;49.574;11.170;2022-12-10T03:55:56;-0.50;99.90
13409;DHT22;6775;49.574;11.170;2022-12-10T03:58:24;-0.40;99.90
13409;DHT22;6775;49.574;11.170;2022-12-10T04:00:51;-0.40;99.90
13409;DHT22;6775;49.574;11.170;2022-12-10T04:03:19;-0.40;99.90
13409;DHT22;6775;49.574;11.170;2022-12-10T04:05:49;-0.40;99.90
13409;DHT22;6775;49.574;11.170;2022-12-10T04:08:16;-0.30;99.90
13409;DHT22;6775;49.574;11.170;2022-12-10T04:10:44;-0.30;99.90
13409;DHT22;6775;49.574;11.170;2022-12-10T04:13:12;-0.30;99.90
13409;DHT22;6775;49.574;11.170;2022-12-10T04:15:58;-0.30;99.90
13409;DHT22;6775;49.574;11.170;2022-12-10T04:18:43;-0.40;99.90
13409;DHT22;6775;49.574;11.170;2022-12-10T04:21:12;-0.40;99.90
13409;DHT22;6775;49.574;11.170;2022-12-10T04:23:58;-0.40;99.90
13409;DHT22;6775;49.574;11.170;2022-12-10T04:26:43;-0.50;99.90
13409;DHT22;6775;49.574;11.170;2022-12-10T04:29:23;-0.40;99.90
13409;DHT22;6775;49.574;11.170;2022-12-10T04:31:52;-0.40;99.90
13409;DHT22;6775;49.574;11.170;2022-12-10T04:34:20;-0.40;99.90
13409;DHT22;6775;49.574;11.170;2022-12-10T04:36:50;-0.30;99.90
13409;DHT22;6775;49.574;11.170;2022-12-10T04:39:19;-0.40;99.90
13409;DHT22;6775;49.574;11.170;2022-12-10T04:41:48;-0.40;99.90
13409;DHT22;6775;49.574;11.170;2022-12-10T04:44:16;-0.40;99.90
13409;DHT22;6775;49.574;11.170;2022-12-10T04:46:44;-0.50;99.90
13409;DHT22;6775;49.574;11.170;2022-12-10T04:49:13;-0.50;99.90
13409;DHT22;6775;49.574;11.170;2022-12-10T04:51:41;-0.40;99.90
13409;DHT22;6775;49.574;11.170;2022-12-10T04:54:11;-0.40;99.90
13409;DHT22;6775;49.574;11.170;2022-12-10T04:56:39;-0.40;99.90
13409;DHT22;6775;49.574;11.170;2022-12-10T04:59:08;-0.30;99.90
13409;DHT22;6775;49.574;11.170;2022-12-10T05:01:37;-0.30;99.90
13409;DHT22;6775;49.574;11.170;2022-12-10T05:04:07;-0.30;99.90
13409;DHT22;6775;49.574;11.170;2022-12-10T05:06:35;-0.30;99.90
13409;DHT22;6775;49.574;11.170;2022-12-10T05:09:04;-0.40;99.90
13409;DHT22;6775;49.574;11.170;2022-12-10T05:11:33;-0.50;99.90
13409;DHT22;6775;49.574;11.170;2022-12-10T05:14:02;-0.50;99.90
13409;DHT22;6775;49.574;11.170;2022-12-10T05:16:32;-0.40;99.90
13409;DHT22;6775;49.574;11.170;2022-12-10T05:19:00;-0.40;99.90
13409;DHT22;6775;49.574;11.170;2022-12-10T05:21:28;-0.50;99.90
13409;DHT22;6775;49.574;11.170;2022-12-10T05:24:18;-0.50;99.90
13409;DHT22;6775;49.574;11.170;2022-12-10T05:26:46;-0.40;99.90
13409;DHT22;6775;49.574;11.170;2022-12-10T05:29:18;-0.40;99.90
13409;DHT22;6775;49.574;11.170;2022-12-10T05:31:46;-0.50;99.90
13409;DHT22;6775;49.574;11.170;2022-12-10T05:34:14;-0.40;99.90
13409;DHT22;6775;49.574;11.170;2022-12-10T05:36:42;-0.50;99.90
13409;DHT22;6775;49.574;11.170;2022-12-10T05:39:10;-0.50;99.90
13409;DHT22;6775;49.574;11.170;2022-12-10T05:41:39;-0.50;99.90
13409;DHT22;6775;49.574;11.170;2022-12-10T05:44:09;-0.40;99.90
13409;DHT22;6775;49.574;11.170;2022-12-10T05:46:38;-0.40;99.90
13409;DHT22;6775;49.574;11.170;2022-12-10T05:49:06;-0.40;99.90
13409;DHT22;6775;49.574;11.170;2022-12-10T05:51:36;-0.40;99.90
13409;DHT22;6775;49.574;11.170;2022-12-10T05:54:05;-0.40;99.90
13409;DHT22;6775;49.574;11.170;2022-12-10T05:56:35;-0.50;99.90
13409;DHT22;6775;49.574;11.170;2022-12-10T05:59:03;-0.40;99.90
13409;DHT22;6775;49.574;11.170;2022-12-10T06:01:39;-0.40;99.90
13409;DHT22;6775;49.574;11.170;2022-12-10T06:04:09;-0.40;99.90
13409;DHT22;6775;49.574;11.170;2022-12-10T06:06:38;-0.40;99.90
13409;DHT22;6775;49.574;11.170;2022-12-10T06:09:07;-0.40;99.90
13409;DHT22;6775;49.574;11.170;2022-12-10T06:11:37;-0.40;99.90
13409;DHT22;6775;49.574;11.170;2022-12-10T06:14:05;-0.30;99.90
13409;DHT22;6775;49.574;11.170;2022-12-10T06:16:33;-0.30;99.90
13409;DHT22;6775;49.574;11.170;2022-12-10T06:19:02;-0.30;99.90
13409;DHT22;6775;49.574;11.170;2022-12-10T06:21:30;-0.30;99.90
13409;DHT22;6775;49.574;11.170;2022-12-10T06:23:58;-0.20;99.90
13409;DHT22;6775;49.574;11.170;2022-12-10T06:26:26;-0.20;99.90
13409;DHT22;6775;49.574;11.170;2022-12-10T06:28:54;-0.30;99.90
13409;DHT22;6775;49.574;11.170;2022-12-10T06:31:22;-0.30;99.90
13409;DHT22;6775;49.574;11.170;2022-12-10T06:33:51;-0.20;99.90
13409;DHT22;6775;49.574;11.170;2022-12-10T06:36:20;-0.20;99.90
13409;DHT22;6775;49.574;11.170;2022-12-10T06:38:48;-0.10;99.90
13409;DHT22;6775;49.574;11.170;2022-12-10T06:41:18;-0.10;99.90
13409;DHT22;6775;49.574;11.170;2022-12-10T06:43:47;0.00;99.90
13409;DHT22;6775;49.574;11.170;2022-12-10T06:46:16;0.10;99.90
13409;DHT22;6775;49.574;11.170;2022-12-10T06:48:45;0.10;99.90
13409;DHT22;6775;49.574;11.170;2022-12-10T06:51:13;0.10;99.90
13409;DHT22;6775;49.574;11.170;2022-12-10T06:53:43;0.10;99.90
13409;DHT22;6775;49.574;11.170;2022-12-10T06:56:13;0.00;99.90
13409;DHT22;6775;49.574;11.170;2022-12-10T06:58:41;0.00;99.90
13409;DHT22;6775;49.574;11.170;2022-12-10T07:01:12;0.10;99.90
13409;DHT22;6775;49.574;11.170;2022-12-10T07:03:40;0.10;99.90
13409;DHT22;6775;49.574;11.170;2022-12-10T07:06:10;0.10;99.90
13409;DHT22;6775;49.574;11.170;2022-12-10T07:08:38;0.00;99.90
13409;DHT22;6775;49.574;11.170;2022-12-10T07:11:10;0.00;99.90
13409;DHT22;6775;49.574;11.170;2022-12-10T07:13:39;0.10;99.90
13409;DHT22;6775;49.574;11.170;2022-12-10T07:16:12;0.10;99.90
13409;DHT22;6775;49.574;11.170;2022-12-10T07:18:40;0.10;99.90
13409;DHT22;6775;49.574;11.170;2022-12-10T07:21:15;0.00;99.90
13409;DHT22;6775;49.574;11.170;2022-12-10T07:23:43;0.00;99.90
13409;DHT22;6775;49.574;11.170;2022-12-10T07:26:12;0.00;99.90
13409;DHT22;6775;49.574;11.170;2022-12-10T07:28:40;0.10;99.90
13409;DHT22;6775;49.574;11.170;2022-12-10T07:31:18;0.10;99.90
13409;DHT22;6775;49.574;11.170;2022-12-10T07:33:46;0.10;99.90
13409;DHT22;6775;49.574;11.170;2022-12-10T07:36:14;0.20;99.90
13409;DHT22;6775;49.574;11.170;2022-12-10T07:38:42;0.20;99.90
13409;DHT22;6775;49.574;11.170;2022-12-10T07:41:13;0.20;99.90
13409;DHT22;6775;49.574;11.170;2022-12-10T07:43:42;0.20;99.90
13409;DHT22;6775;49.574;11.170;2022-12-10T07:46:12;0.20;99.90
13409;DHT22;6775;49.574;11.170;2022-12-10T07:48:41;0.20;99.90
13409;DHT22;6775;49.574;11.170;2022-12-10T07:51:10;0.10;99.90
13409;DHT22;6775;49.574;11.170;2022-12-10T07:53:38;0.20;99.90
13409;DHT22;6775;49.574;11.170;2022-12-10T07:56:06;0.20;99.90
13409;DHT22;6775;49.574;11.170;2022-12-10T07:58:36;0.20;99.90
13409;DHT22;6775;49.574;11.170;2022-12-10T08:01:07;0.20;99.90
13409;DHT22;6775;49.574;11.170;2022-12-10T08:03:36;0.10;99.90
13409;DHT22;6775;49.574;11.170;2022-12-10T08:06:06;0.10;99.90
13409;DHT22;6775;49.574;11.170;2022-12-10T08:08:36;0.00;99.90
13409;DHT22;6775;49.574;11.170;2022-12-10T08:11:05;0.00;99.90
13409;DHT22;6775;49.574;11.170;2022-12-10T08:13:33;0.00;99.90
13409;DHT22;6775;49.574;11.170;2022-12-10T08:16:05;0.00;99.90
13409;DHT22;6775;49.574;11.170;2022-12-10T08:18:34;0.00;99.90
13409;DHT22;6775;49.574;11.170;2022-12-10T08:21:03;0.00;99.90
13409;DHT22;6775;49.574;11.170;2022-12-10T08:23:31;0.10;99.90
13409;DHT22;6775;49.574;11.170;2022-12-10T08:26:02;0.10;99.90
13409;DHT22;6775;49.574;11.170;2022-12-10T08:28:30;0.20;99.90
13409;DHT22;6775;49.574;11.170;2022-12-10T08:30:58;0.30;99.90
13409;DHT22;6775;49.574;11.170;2022-12-10T08:33:28;0.40;99.90
13409;DHT22;6775;49.574;11.170;2022-12-10T08:35:57;0.40;99.90
13409;DHT22;6775;49.574;11.170;2022-12-10T08:38:26;0.50;99.90
13409;DHT22;6775;49.574;11.170;2022-12-10T08:40:54;0.40;99.90
13409;DHT22;6775;49.574;11.170;2022-12-10T08:43:22;0.40;99.90
13409;DHT22;6775;49.574;11.170;2022-12-10T08:45:50;0.40;99.90
13409;DHT22;6775;49.574;11.170;2022-12-10T08:48:18;0.50;99.90
13409;DHT22;6775;49.574;11.170;2022-12-10T08:50:47;0.50;99.90
13409;DHT22;6775;49.574;11.170;2022-12-10T08:53:15;0.50;99.90
13409;DHT22;6775;49.574;11.170;2022-12-10T08:55:43;0.50;99.90
13409;DHT22;6775;49.574;11.170;2022-12-10T08:58:15;0.50;99.90
13409;DHT22;6775;49.574;11.170;2022-12-10T09:00:42;0.50;99.90
13409;DHT22;6775;49.574;11.170;2022-12-10T09:03:10;0.60;99.90
13409;DHT22;6775;49.574;11.170;2022-12-10T09:05:39;0.60;99.90
13409;DHT22;6775;49.574;11.170;2022-12-10T09:08:08;0.70;99.90
13409;DHT22;6775;49.574;11.170;2022-12-10T09:10:37;0.70;99.90
13409;DHT22;6775;49.574;11.170;2022-12-10T09:13:05;0.70;99.90
13409;DHT22;6775;49.574;11.170;2022-12-10T09:15:33;0.70;99.90
13409;DHT22;6775;49.574;11.170;2022-12-10T09:18:01;0.80;99.90
13409;DHT22;6775;49.574;11.170;2022-12-10T09:20:29;0.80;99.90
13409;DHT22;6775;49.574;11.170;2022-12-10T09:22:57;0.90;99.90
13409;DHT22;6775;49.574;11.170;2022-12-10T09:25:26;1.00;99.90
13409;DHT22;6775;49.574;11.170;2022-12-10T09:27:54;1.10;99.90
13409;DHT22;6775;49.574;11.170;2022-12-10T09:30:22;1.20;99.90
13409;DHT22;6775;49.574;11.170;2022-12-10T09:32:50;1.20;99.90
13409;DHT22;6775;49.574;11.170;2022-12-10T09:35:18;1.20;99.90
13409;DHT22;6775;49.574;11.170;2022-12-10T09:37:46;1.10;99.90
13409;DHT22;6775;49.574;11.170;2022-12-10T09:40:15;1.10;99.90
13409;DHT22;6775;49.574;11.170;2022-12-10T09:42:50;1.10;99.90
13409;DHT22;6775;49.574;11.170;2022-12-10T09:45:26;1.10;99.90
13409;DHT22;6775;49.574;11.170;2022-12-10T09:48:02;1.10;99.90
13409;DHT22;6775;49.574;11.170;2022-12-10T09:50:35;1.10;99.90
13409;DHT22;6775;49.574;11.170;2022-12-10T09:53:13;1.20;99.90
13409;DHT22;6775;49.574;11.170;2022-12-10T09:55:46;1.20;99.90
13409;DHT22;6775;49.574;11.170;2022-12-10T09:58:18;1.30;99.90
13409;DHT22;6775;49.574;11.170;2022-12-10T10:00:58;1.30;99.90
13409;DHT22;6775;49.574;11.170;2022-12-10T10:03:27;1.40;99.90
13409;DHT22;6775;49.574;11.170;2022-12-10T10:05:58;1.40;99.90
13409;DHT22;6775;49.574;11.170;2022-12-10T10:08:29;1.40;99.90
13409;DHT22;6775;49.574;11.170;2022-12-10T10:10:59;1.40;99.90
13409;DHT22;6775;49.574;11.170;2022-12-10T10:13:34;1.30;99.90
13409;DHT22;6775;49.574;11.170;2022-12-10T10:16:19;1.30;99.90
13409;DHT22;6775;49.574;11.170;2022-12-10T10:18:52;1.30;99.90
13409;DHT22;6775;49.574;11.170;2022-12-10T10:21:23;1.30;99.90
13409;DHT22;6775;49.574;11.170;2022-12-10T10:23:52;1.30;99.90
13409;DHT22;6775;49.574;11.170;2022-12-10T10:26:24;1.30;99.90
13409;DHT22;6775;49.574;11.170;2022-12-10T10:28:57;1.30;99.90
13409;DHT22;6775;49.574;11.170;2022-12-10T10:31:29;1.30;99.90
13409;DHT22;6775;49.574;11.170;2022-12-10T10:33:58;1.40;99.90
13409;DHT22;6775;49.574;11.170;2022-12-10T10:36:28;1.40;99.90
13409;DHT22;6775;49.574;11.170;2022-12-10T10:38:57;1.50;99.90
13409;DHT22;6775;49.574;11.170;2022-12-10T10:41:36;1.50;99.90
13409;DHT22;6775;49.574;11.170;2022-12-10T10:44:13;1.50;99.90
13409;DHT22;6775;49.574;11.170;2022-12-10T10:46:43;1.50;99.90
13409;DHT22;6775;49.574;11.170;2022-12-10T10:49:17;1.50;99.90
13409;DHT22;6775;49.574;11.170;2022-12-10T10:51:46;1.60;99.90
13409;DHT22;6775;49.574;11.170;2022-12-10T10:54:31;1.60;99.90
13409;DHT22;6775;49.574;11.170;2022-12-10T10:57:02;1.70;99.90
13409;DHT22;6775;49.574;11.170;2022-12-10T10:59:34;1.60;99.90
13409;DHT22;6775;49.574;11.170;2022-12-10T11:02:13;1.70;99.90
13409;DHT22;6775;49.574;11.170;2022-12-10T11:04:48;1.70;99.90
13409;DHT22;6775;49.574;11.170;2022-12-10T11:07:22;1.90;99.90
13409;DHT22;6775;49.574;11.170;2022-12-10T11:09:52;1.90;99.90
13409;DHT22;6775;49.574;11.170;2022-12-10T11:12:32;1.90;99.90
13409;DHT22;6775;49.574;11.170;2022-12-10T11:15:21;2.00;99.90
13409;DHT22;6775;49.574;11.170;2022-12-10T11:17:55;2.00;99.90
13409;DHT22;6775;49.574;11.170;2022-12-10T11:20:24;2.10;99.90
13409;DHT22;6775;49.574;11.170;2022-12-10T11:22:54;2.20;99.90
13409;DHT22;6775;49.574;11.170;2022-12-10T11:25:37;2.20;99.90
13409;DHT22;6775;49.574;11.170;2022-12-10T11:28:16;2.20;99.90
13409;DHT22;6775;49.574;11.170;2022-12-10T11:30:55;2.20;99.90
13409;DHT22;6775;49.574;11.170;2022-12-10T11:33:31;2.30;99.90
13409;DHT22;6775;49.574;11.170;2022-12-10T11:36:06;2.40;99.90
13409;DHT22;6775;49.574;11.170;2022-12-10T11:38:43;2.40;99.90
13409;DHT22;6775;49.574;11.170;2022-12-10T11:41:18;2.50;99.90
13409;DHT22;6775;49.574;11.170;2022-12-10T11:43:59;2.50;99.90
13409;DHT22;6775;49.574;11.170;2022-12-10T11:46:39;2.50;99.90
13409;DHT22;6775;49.574;11.170;2022-12-10T11:49:20;2.50;99.90
13409;DHT22;6775;49.574;11.170;2022-12-10T11:51:55;2.50;99.90
13409;DHT22;6775;49.574;11.170;2022-12-10T11:54:51;2.60;99.90
13409;DHT22;6775;49.574;11.170;2022-12-10T11:57:33;2.60;99.90
13409;DHT22;6775;49.574;11.170;2022-12-10T12:00:13;2.50;99.90
13409;DHT22;6775;49.574;11.170;2022-12-10T12:06:05;2.40;99.90
13409;DHT22;6775;49.574;11.170;2022-12-10T12:08:47;2.40;99.90
13409;DHT22;6775;49.574;11.170;2022-12-10T12:11:26;2.40;99.90
13409;DHT22;6775;49.574;11.170;2022-12-10T12:14:00;2.40;99.90
13409;DHT22;6775;49.574;11.170;2022-12-10T12:16:34;2.40;99.90
13409;DHT22;6775;49.574;11.170;2022-12-10T12:19:05;2.30;99.90
13409;DHT22;6775;49.574;11.170;2022-12-10T12:21:38;2.30;99.90
13409;DHT22;6775;49.574;11.170;2022-12-10T12:24:12;2.30;99.90
13409;DHT22;6775;49.574;11.170;2022-12-10T12:26:48;2.30;99.90
13409;DHT22;6775;49.574;11.170;2022-12-10T12:29:20;2.30;99.90
13409;DHT22;6775;49.574;11.170;2022-12-10T12:31:56;2.40;99.90
13409;DHT22;6775;49.574;11.170;2022-12-10T12:34:28;2.40;99.90
13409;DHT22;6775;49.574;11.170;2022-12-10T12:37:02;2.40;99.90
13409;DHT22;6775;49.574;11.170;2022-12-10T12:39:34;2.30;99.90
13409;DHT22;6775;49.574;11.170;2022-12-10T12:42:15;2.40;99.90
13409;DHT22;6775;49.574;11.170;2022-12-10T12:44:52;2.50;99.90
13409;DHT22;6775;49.574;11.170;2022-12-10T12:47:32;2.40;99.90
13409;DHT22;6775;49.574;11.170;2022-12-10T12:50:10;2.40;99.90
13409;DHT22;6775;49.574;11.170;2022-12-10T12:52:46;2.30;99.90
13409;DHT22;6775;49.574;11.170;2022-12-10T12:55:19;2.20;99.90
13409;DHT22;6775;49.574;11.170;2022-12-10T12:57:51;2.20;99.90
13409;DHT22;6775;49.574;11.170;2022-12-10T13:00:22;2.10;99.90
13409;DHT22;6775;49.574;11.170;2022-12-10T13:02:58;2.10;99.90
13409;DHT22;6775;49.574;11.170;2022-12-10T13:05:30;2.00;99.90
13409;DHT22;6775;49.574;11.170;2022-12-10T13:08:23;2.10;99.90
13409;DHT22;6775;49.574;11.170;2022-12-10T13:10:54;2.10;99.90
13409;DHT22;6775;49.574;11.170;2022-12-10T13:13:29;2.00;99.90
13409;DHT22;6775;49.574;11.170;2022-12-10T13:19:27;2.10;99.90
13409;DHT22;6775;49.574;11.170;2022-12-10T13:22:04;2.10;99.90
13409;DHT22;6775;49.574;11.170;2022-12-10T13:27:33;2.00;99.90
13409;DHT22;6775;49.574;11.170;2022-12-10T13:30:05;2.00;99.90
13409;DHT22;6775;49.574;11.170;2022-12-10T13:33:00;2.00;99.90
13409;DHT22;6775;49.574;11.170;2022-12-10T13:35:31;2.00;99.90
13409;DHT22;6775;49.574;11.170;2022-12-10T13:38:17;1.90;99.90
13409;DHT22;6775;49.574;11.170;2022-12-10T13:40:57;1.90;99.90
13409;DHT22;6775;49.574;11.170;2022-12-10T13:43:52;1.90;99.90
13409;DHT22;6775;49.574;11.170;2022-12-10T13:46:53;1.90;99.90
13409;DHT22;6775;49.574;11.170;2022-12-10T13:49:23;1.80;99.90
13409;DHT22;6775;49.574;11.170;2022-12-10T13:52:02;1.80;99.90
13409;DHT22;6775;49.574;11.170;2022-12-10T13:54:58;1.90;99.90
13409;DHT22;6775;49.574;11.170;2022-12-10T13:57:46;1.90;99.90
13409;DHT22;6775;49.574;11.170;2022-12-10T14:00:20;1.80;99.90
13409;DHT22;6775;49.574;11.170;2022-12-10T14:03:01;1.80;99.90
13409;DHT22;6775;49.574;11.170;2022-12-10T14:05:53;1.90;99.90
13409;DHT22;6775;49.574;11.170;2022-12-10T14:08:26;1.90;99.90
13409;DHT22;6775;49.574;11.170;2022-12-10T14:10:58;1.80;99.90
13409;DHT22;6775;49.574;11.170;2022-12-10T14:13:32;1.80;99.90
13409;DHT22;6775;49.574;11.170;2022-12-10T14:16:03;1.80;99.90
13409;DHT22;6775;49.574;11.170;2022-12-10T14:18:33;1.80;99.90
13409;DHT22;6775;49.574;11.170;2022-12-10T14:21:05;1.80;99.90
13409;DHT22;6775;49.574;11.170;2022-12-10T14:23:34;1.80;99.90
13409;DHT22;6775;49.574;11.170;2022-12-10T14:26:14;1.70;99.90
13409;DHT22;6775;49.574;11.170;2022-12-10T14:28:44;1.80;99.90
13409;DHT22;6775;49.574;11.170;2022-12-10T14:31:17;1.80;99.90
13409;DHT22;6775;49.574;11.170;2022-12-10T14:33:48;1.90;99.90
13409;DHT22;6775;49.574;11.170;2022-12-10T14:36:20;1.90;99.90
13409;DHT22;6775;49.574;11.170;2022-12-10T14:38:49;1.90;99.90
13409;DHT22;6775;49.574;11.170;2022-12-10T14:41:20;1.90;99.90
13409;DHT22;6775;49.574;11.170;2022-12-10T14:43:50;2.00;99.90
13409;DHT22;6775;49.574;11.170;2022-12-10T14:46:23;2.00;99.90
13409;DHT22;6775;49.574;11.170;2022-12-10T14:48:52;2.00;99.90
13409;DHT22;6775;49.574;11.170;2022-12-10T14:51:22;2.10;99.90
13409;DHT22;6775;49.574;11.170;2022-12-10T14:53:53;2.10;99.90
13409;DHT22;6775;49.574;11.170;2022-12-10T14:56:25;2.10;99.90
13409;DHT22;6775;49.574;11.170;2022-12-10T14:58:57;2.10;99.90
13409;DHT22;6775;49.574;11.170;2022-12-10T15:01:32;2.00;99.90
13409;DHT22;6775;49.574;11.170;2022-12-10T15:04:03;2.00;99.90
13409;DHT22;6775;49.574;11.170;2022-12-10T15:06:34;2.00;99.90
13409;DHT22;6775;49.574;11.170;2022-12-10T15:09:04;2.00;99.90
13409;DHT22;6775;49.574;11.170;2022-12-10T15:11:32;1.90;99.90
13409;DHT22;6775;49.574;11.170;2022-12-10T15:14:02;1.90;99.90
13409;DHT22;6775;49.574;11.170;2022-12-10T15:16:39;1.90;99.90
13409;DHT22;6775;49.574;11.170;2022-12-10T15:19:19;1.90;99.90
13409;DHT22;6775;49.574;11.170;2022-12-10T15:21:48;1.90;99.90
13409;DHT22;6775;49.574;11.170;2022-12-10T15:24:20;1.90;99.90
13409;DHT22;6775;49.574;11.170;2022-12-10T15:26:50;2.00;99.90
13409;DHT22;6775;49.574;11.170;2022-12-10T15:29:34;1.90;99.90
13409;DHT22;6775;49.574;11.170;2022-12-10T15:32:11;1.90;99.90
13409;DHT22;6775;49.574;11.170;2022-12-10T15:34:45;1.90;99.90
13409;DHT22;6775;49.574;11.170;2022-12-10T15:37:24;1.90;99.90
13409;DHT22;6775;49.574;11.170;2022-12-10T15:39:54;1.90;99.90
13409;DHT22;6775;49.574;11.170;2022-12-10T15:42:30;1.90;99.90
13409;DHT22;6775;49.574;11.170;2022-12-10T15:45:03;1.90;99.90
13409;DHT22;6775;49.574;11.170;2022-12-10T15:47:33;1.90;99.90
13409;DHT22;6775;49.574;11.170;2022-12-10T15:50:05;1.90;99.90
13409;DHT22;6775;49.574;11.170;2022-12-10T15:52:33;1.90;99.90
13409;DHT22;6775;49.574;11.170;2022-12-10T15:55:02;1.90;99.90
13409;DHT22;6775;49.574;11.170;2022-12-10T15:57:32;1.90;99.90
13409;DHT22;6775;49.574;11.170;2022-12-10T16:00:02;1.90;99.90
13409;DHT22;6775;49.574;11.170;2022-12-10T16:02:37;1.90;99.90
13409;DHT22;6775;49.574;11.170;2022-12-10T16:05:11;1.90;99.90
13409;DHT22;6775;49.574;11.170;2022-12-10T16:07:40;1.90;99.90
13409;DHT22;6775;49.574;11.170;2022-12-10T16:10:10;1.90;99.90
13409;DHT22;6775;49.574;11.170;2022-12-10T16:12:39;1.90;99.90
13409;DHT22;6775;49.574;11.170;2022-12-10T16:15:14;1.90;99.90
13409;DHT22;6775;49.574;11.170;2022-12-10T16:17:45;1.80;99.90
13409;DHT22;6775;49.574;11.170;2022-12-10T16:20:25;1.80;99.90
13409;DHT22;6775;49.574;11.170;2022-12-10T16:22:54;1.80;99.90
13409;DHT22;6775;49.574;11.170;2022-12-10T16:25:26;1.80;99.90